x

South Santa Rosa Is. Ca (46069) Wave Buoy

10:50 - Mon 27th Jul 2015 All times are PDT. -7 hours from GMT.

  • Sig Wave height 7.2ft
  • Peak Period 11s
  • Average Period 6s
  • Wind
    22mph, 27mph gusts
  • Sea Temp 66°f
  • Luft Temp 63°f
  • Sea Pressure 1011.9mb
  • South Santa Rosa Is. Ca
  • South Santa Rosa Is. Ca

More Historic Weather Station data

Upgrade to MSW Pro to gain access to the past 30 days of data for over 8000 Wavebouys and Weather Stations around the globe.

Join Pro

Comparision Forecast

View Surf forecast
   
Mo 07/27 10:50 7ft 11s 6s 22 27 mph 1011.9mb 66f 63f
9:50 7ft 8s 6s 22 27 mph 1011.9mb 66f 63f
8:50 7.5ft 9s 6s 22 27 mph 1011.5mb 67f 63f
7:50 7.5ft 9s 6s 22 25 mph 1011.5mb 67f 63f
6:50 8ft 8s 6s 20 25 mph 1011.1mb 67f 63f
5:50 8.5ft 8s 6s 22 27 mph 1011.1mb 67f 63f
4:50 8ft 8s 6s 20 27 mph 1011.5mb 67f 63f
3:50 7ft 10s 6s 20 27 mph 1012.1mb 67f 63f
2:50 7ft 9s 7s 18 22 mph 1012.7mb 67f 64f
1:50 6.5ft 8s 7s 18 20 mph 1013.1mb 67f 63f
12:50 6ft 11s 7s 13 18 mph 1013.7mb 67f 63f
11:50 6ft 8s 7s 13 16 mph 1013.9mb 66f 63f
10:50 7ft 8s 7s 9 11 mph 1013.9mb 66f 63f
9:50 6.5ft 8s 7s 11 16 mph 1013.8mb 66f 61f
8:50 7ft 9s 7s 16 18 mph 1013.5mb 66f 62f
7:50 7ft 8s 6s 16 20 mph 1013mb 66f 63f
6:50 6ft 8s 6s 18 22 mph 1012.6mb 66f 63f
5:50 6.5ft 8s 6s 20 25 mph 1012mb 66f 63f
4:50 7ft 8s  -  20 25 mph 1011.7mb 65f 63f
3:50 7ft 7s 6s 22 27 mph 1011.6mb 65f 63f
2:50 7ft 7s 6s 22 27 mph 1011.6mb 65f 63f
1:50 6.5ft 7s 6s 25 29 mph 1011.5mb 65f 63f
12:50 6.5ft 7s 6s 25 29 mph 1012mb 65f 63f
So 07/26 11:50 6ft 6s 5s 25 29 mph 1012.7mb 65f 63f
10:50 7ft 7s 5s 22 27 mph 1012.7mb 66f 63f
9:50 7ft 7s 5s 22 27 mph 1012.6mb 66f 63f
8:50 6.5ft 7s 6s 25 29 mph 1012.1mb 66f 63f
7:50 6.5ft 6s 5s 25 29 mph 1012.1mb 65f 63f
6:50 6ft 7s 6s 25 31 mph 1012.1mb 65f 64f
5:50 7ft 7s 5s 22 27 mph 1012.5mb 65f 64f
4:50 6.5ft 7s 5s 22 27 mph 1012.7mb 65f 64f
3:50 6ft 7s 6s 25 29 mph 1013mb 65f 64f
2:50 6ft 7s 6s 22 27 mph 1013.6mb 65f 64f
1:50 6ft 15s 6s 22 27 mph 1013.9mb 65f 63f
12:50 6ft 7s 6s 20 25 mph 1014.4mb 65f 63f
11:50 5.5ft 5s 6s 22 27 mph 1014.7mb 64f 63f
10:50 7ft 7s 6s 22 29 mph 1014.2mb 65f 63f
9:50 7ft 7s 6s 22 29 mph 1014mb 65f 62f
8:50 7ft 6s 6s 25 27 mph 1013.8mb 65f 62f
7:50 7ft 7s 6s 25 29 mph 1013.4mb 65f 63f
6:50 6.5ft 8s 5s 25 31 mph 1012.8mb 65f 62f
5:50 7.5ft 7s 5s 25 29 mph 1012.4mb 65f 63f
4:50 7.5ft 6s 6s 27 31 mph 1012mb 66f 62f
3:50 7.5ft 7s 6s 27 31 mph 1012.1mb 66f 62f
2:50 7.5ft 7s 6s 27 29 mph 1012.4mb 66f 62f
1:50 8ft 7s 6s 27 31 mph 1012.7mb 67f 62f
12:50 7.5ft 8s 6s 27 34 mph 1013.1mb 67f 62f
Sa 07/25 11:50 7.5ft 7s 6s 27 31 mph 1013.3mb 67f 63f
10:50 7.5ft 7s 6s 27 31 mph 1013.3mb 67f 63f
9:50 6ft 7s 5s 25 29 mph 1013.3mb 67f 64f
8:50 6ft 7s 5s 22 27 mph 1013.2mb 67f 65f
7:50 6.5ft 7s 5s 22 27 mph 1012.9mb 67f 65f
6:50 6ft 7s 5s 27 31 mph 1012.6mb 67f 65f
5:50 6ft 7s 5s 20 25 mph 1013.6mb 67f 66f
4:50 5.5ft 6s 5s 25 29 mph 1013.5mb 67f 65f
3:50 5ft 7s 5s 20 27 mph 1014.3mb 66f 65f
2:50 5ft 7s 5s 20 22 mph 1015mb 66f 65f
1:50 5ft 7s 5s 20 22 mph 1015.7mb 66f 65f
12:50 5ft 7s 6s 18 20 mph 1016.3mb 66f 65f
11:50 5.5ft 7s 6s 20 25 mph 1016.4mb 66f 64f
10:50 5.5ft 7s 6s 18 22 mph 1016.3mb 66f 64f
9:50 5.5ft 14s 6s 20 22 mph 1016.1mb 67f 64f
8:50 5.5ft 15s 6s 20 22 mph 1016.3mb 67f 64f
7:50 5ft 7s 5s 20 25 mph 1015.8mb 67f 64f
6:50 6ft 7s 5s 18 22 mph 1015.6mb 67f 64f
5:50 6ft 7s 5s 25 29 mph 1014.7mb 66f 64f
4:50 6ft 6s 5s 20 25 mph 1014.9mb 66f 64f
3:50 6.5ft 6s 5s 22 27 mph 1014.9mb 66f 65f
2:50 5.5ft 6s 5s 22 25 mph 1014.9mb 66f 65f
1:50 5.5ft 7s 5s 22 27 mph 1015.2mb 66f 65f
12:50 6ft 7s 5s 22 27 mph 1015.7mb 65f 65f
Fr 07/24 11:50 5ft 7s 5s 18 22 mph 1016.2mb 66f 65f
10:50 6ft 7s 5s 20 22 mph 1016.2mb 66f 65f
9:50 5.5ft 6s 5s 20 27 mph 1015.9mb 66f 65f
8:50 5ft 7s 5s 18 22 mph 1015.7mb 67f 65f
7:50 4.5ft 7s 5s 20 22 mph 1015.5mb 67f 65f
6:50 4.5ft 7s 5s 18 20 mph 1015.7mb 67f 65f
5:50 4.5ft 7s 5s 18 20 mph 1015.7mb 67f 65f
4:50 5ft 7s 6s 18 20 mph 1015.9mb 67f 65f
3:50 4.5ft 8s 6s 16 18 mph 1016.4mb 67f 65f
2:50 4.5ft 7s 6s 16 18 mph 1017mb 67f 65f
1:50 4.5ft 8s 6s 13
mph
1017.4mb 66f 65f
12:50 4.5ft 14s 6s 11 13 mph 1017.8mb 66f 65f
11:50 4.5ft 7s 6s 13 16 mph 1017.8mb 66f 65f
10:50 5ft 15s 6s 11 13 mph 1017.9mb 66f 65f
9:50 4.5ft 8s 5s 13 16 mph 1017.7mb 65f 64f
8:50 5ft 8s 6s 16 18 mph 1017.3mb 65f 64f
7:50 5.5ft 7s 6s 16 18 mph 1016.8mb 65f 64f
6:50 5ft 7s 6s 16 20 mph 1016.1mb 65f 64f